createdAt,value
2019-05-10T00:00:07.031Z,996.98
2019-05-10T00:01:06.954Z,996.99
2019-05-10T00:02:06.882Z,997.02
2019-05-10T00:03:06.795Z,997.00
2019-05-10T00:04:06.706Z,997.02
2019-05-10T00:05:06.631Z,997.04
2019-05-10T00:06:06.545Z,997.06
2019-05-10T00:07:06.468Z,997.07
2019-05-10T00:08:06.384Z,997.03
2019-05-10T00:09:06.306Z,997.02
2019-05-10T00:10:06.219Z,997.03
2019-05-10T00:11:06.166Z,997.02
2019-05-10T00:12:06.080Z,997.02
2019-05-10T00:13:05.985Z,997.04
2019-05-10T00:14:05.898Z,997.02
2019-05-10T00:15:05.819Z,996.99
2019-05-10T00:16:05.734Z,996.97
2019-05-10T00:17:05.657Z,996.99
2019-05-10T00:18:05.582Z,997.00
2019-05-10T00:19:05.496Z,996.94
2019-05-10T00:20:05.408Z,996.96
2019-05-10T00:21:05.332Z,996.94
2019-05-10T00:22:05.247Z,996.97
2019-05-10T00:23:05.170Z,997.00
2019-05-10T00:24:05.082Z,997.01
2019-05-10T00:25:05.279Z,997.00
2019-05-10T00:26:04.924Z,997.03
2019-05-10T00:27:04.844Z,996.98
2019-05-10T00:28:04.762Z,997.01
2019-05-10T00:29:04.683Z,996.97
2019-05-10T00:30:04.595Z,996.99
2019-05-10T00:31:04.520Z,997.00
2019-05-10T00:32:04.433Z,996.95
2019-05-10T00:33:04.358Z,996.97
2019-05-10T00:34:04.270Z,997.00
2019-05-10T00:35:04.197Z,997.00
2019-05-10T00:36:04.108Z,996.99
2019-05-10T00:37:04.035Z,997.04
2019-05-10T00:38:03.957Z,997.04
2019-05-10T00:39:03.871Z,997.00
2019-05-10T00:40:03.784Z,996.98
2019-05-10T00:41:03.709Z,997.02
2019-05-10T00:42:03.621Z,997.01
2019-05-10T00:43:03.550Z,997.01
2019-05-10T00:44:03.474Z,997.00
2019-05-10T00:45:03.420Z,996.99
2019-05-10T00:46:03.297Z,997.03
2019-05-10T00:47:03.225Z,997.01
2019-05-10T00:48:03.135Z,997.02
2019-05-10T00:49:03.064Z,996.99
2019-05-10T00:50:02.976Z,997.00
2019-05-10T00:51:02.911Z,997.01
2019-05-10T00:52:02.816Z,997.04
2019-05-10T00:53:02.735Z,997.02
2019-05-10T00:54:02.650Z,997.05
2019-05-10T00:55:16.662Z,997.04
2019-05-10T00:56:02.486Z,997.06
2019-05-10T00:57:02.412Z,997.06
2019-05-10T00:58:02.323Z,997.04
2019-05-10T00:59:02.248Z,997.03
2019-05-10T01:00:02.174Z,997.04
2019-05-10T01:01:02.086Z,997.05
2019-05-10T01:02:02.020Z,997.06
2019-05-10T01:03:01.924Z,997.06
2019-05-10T01:04:01.838Z,997.10
2019-05-10T01:05:01.768Z,997.07
2019-05-10T01:06:01.701Z,997.11
2019-05-10T01:07:01.601Z,997.08
2019-05-10T01:08:01.513Z,997.12
2019-05-10T01:09:01.458Z,997.14
2019-05-10T01:10:01.362Z,997.15
2019-05-10T01:11:01.274Z,997.13
2019-05-10T01:12:01.205Z,997.13
2019-05-10T01:13:01.112Z,997.17
2019-05-10T01:14:01.026Z,997.16
2019-05-10T01:15:00.963Z,997.21
2019-05-10T01:16:00.875Z,997.19
2019-05-10T01:17:00.800Z,997.20
2019-05-10T01:18:00.713Z,997.21
2019-05-10T01:19:00.628Z,997.24
2019-05-10T01:20:00.563Z,997.24
2019-05-10T01:21:00.463Z,997.25
2019-05-10T01:22:00.392Z,997.24
2019-05-10T01:23:00.302Z,997.25
2019-05-10T01:24:00.225Z,997.22
2019-05-10T01:25:00.140Z,997.26
2019-05-10T01:26:00.068Z,997.26
2019-05-10T01:26:59.975Z,997.27
2019-05-10T01:27:59.901Z,997.32
2019-05-10T01:28:59.815Z,997.27
2019-05-10T01:29:59.740Z,997.29
2019-05-10T01:30:59.652Z,997.28
2019-05-10T01:31:59.589Z,997.28
2019-05-10T01:32:59.489Z,997.28
2019-05-10T01:33:59.415Z,997.27
2019-05-10T01:34:59.326Z,997.26
2019-05-10T01:35:59.252Z,997.28
2019-05-10T01:36:59.165Z,997.26
2019-05-10T01:37:59.090Z,997.29
2019-05-10T01:38:59.002Z,997.27
2019-05-10T01:39:58.928Z,997.28
2019-05-10T01:40:58.847Z,997.25
2019-05-10T01:41:58.767Z,997.30
2019-05-10T01:42:58.679Z,997.29
2019-05-10T01:43:58.603Z,997.31
2019-05-10T01:44:58.516Z,997.29
2019-05-10T01:45:58.442Z,997.31
2019-05-10T01:46:58.354Z,997.32
2019-05-10T01:47:58.283Z,997.32
2019-05-10T01:48:58.203Z,997.34
2019-05-10T01:49:58.119Z,997.30
2019-05-10T01:50:58.041Z,997.29
2019-05-10T01:51:57.959Z,997.30
2019-05-10T01:52:57.879Z,997.33
2019-05-10T01:53:57.793Z,997.34
2019-05-10T01:54:57.718Z,997.32
2019-05-10T01:55:57.629Z,997.32
2019-05-10T01:56:57.567Z,997.35
2019-05-10T01:57:57.467Z,997.32
2019-05-10T01:58:57.394Z,997.37
2019-05-10T01:59:57.306Z,997.35
2019-05-10T02:00:57.230Z,997.36
2019-05-10T02:01:57.143Z,997.34
2019-05-10T02:02:57.068Z,997.40
2019-05-10T02:03:56.980Z,997.40
2019-05-10T02:04:56.905Z,997.40
2019-05-10T02:05:56.825Z,997.44
2019-05-10T02:06:56.743Z,997.46
2019-05-10T02:07:56.664Z,997.43
2019-05-10T02:08:56.581Z,997.50
2019-05-10T02:09:56.496Z,997.47
2019-05-10T02:10:56.419Z,997.51
2019-05-10T02:11:56.333Z,997.53
2019-05-10T02:12:56.262Z,997.53
2019-05-10T02:13:56.182Z,997.54
2019-05-10T02:14:56.095Z,997.54
2019-05-10T02:15:56.019Z,997.57
2019-05-10T02:16:55.931Z,997.53
2019-05-10T02:17:55.858Z,997.51
2019-05-10T02:18:55.770Z,997.53
2019-05-10T02:19:55.696Z,997.55
2019-05-10T02:20:55.608Z,997.51
2019-05-10T02:21:55.535Z,997.53
2019-05-10T02:22:55.446Z,997.53
2019-05-10T02:23:55.370Z,997.54
2019-05-10T02:24:55.283Z,997.52
2019-05-10T02:26:08.476Z,997.56
2019-05-10T02:26:55.121Z,997.55
2019-05-10T02:27:55.046Z,997.56
2019-05-10T02:28:54.958Z,997.54
2019-05-10T02:29:54.884Z,997.53
2019-05-10T02:30:54.817Z,997.55
2019-05-10T02:31:54.725Z,997.60
2019-05-10T02:32:54.646Z,997.56
2019-05-10T02:33:54.562Z,997.59
2019-05-10T02:34:54.472Z,997.63
2019-05-10T02:35:54.408Z,997.62
2019-05-10T02:36:54.312Z,997.59
2019-05-10T02:37:54.237Z,997.60
2019-05-10T02:38:54.164Z,997.63
2019-05-10T02:39:54.076Z,997.65
2019-05-10T02:40:54.000Z,997.65
2019-05-10T02:41:53.912Z,997.64
2019-05-10T02:42:53.822Z,997.64
2019-05-10T02:43:53.749Z,997.65
2019-05-10T02:44:53.676Z,997.67
2019-05-10T02:45:53.585Z,997.65
2019-05-10T02:46:53.498Z,997.66
2019-05-10T02:47:53.427Z,997.66
2019-05-10T02:48:53.345Z,997.69
2019-05-10T02:49:53.261Z,997.66
2019-05-10T02:50:53.178Z,997.66
2019-05-10T02:51:53.102Z,997.66
2019-05-10T02:52:53.014Z,997.66
2019-05-10T02:53:52.937Z,997.64
2019-05-10T02:54:52.895Z,997.62
2019-05-10T02:55:52.774Z,997.65
2019-05-10T02:56:52.685Z,997.67
2019-05-10T02:57:52.611Z,997.65
2019-05-10T02:58:52.528Z,997.70
2019-05-10T02:59:52.451Z,997.70
2019-05-10T03:00:52.365Z,997.69
2019-05-10T03:01:52.276Z,997.73
2019-05-10T03:02:52.202Z,997.69
2019-05-10T03:03:52.116Z,997.73
2019-05-10T03:04:52.043Z,997.71
2019-05-10T03:05:51.950Z,997.73
2019-05-10T03:06:51.878Z,997.75
2019-05-10T03:07:51.788Z,997.75
2019-05-10T03:08:51.725Z,997.76
2019-05-10T03:09:51.636Z,997.72
2019-05-10T03:10:51.565Z,997.70
2019-05-10T03:11:51.463Z,997.76
2019-05-10T03:12:51.388Z,997.74
2019-05-10T03:13:51.301Z,997.79
2019-05-10T03:14:51.226Z,997.82
2019-05-10T03:15:51.141Z,997.82
2019-05-10T03:16:51.064Z,997.84
2019-05-10T03:17:50.977Z,997.84
2019-05-10T03:18:50.891Z,997.87
2019-05-10T03:19:50.830Z,997.91
2019-05-10T03:20:50.729Z,997.90
2019-05-10T03:21:50.655Z,997.92
2019-05-10T03:22:50.567Z,997.95
2019-05-10T03:23:50.490Z,997.98
2019-05-10T03:24:50.416Z,997.98
2019-05-10T03:25:50.328Z,997.99
2019-05-10T03:26:51.482Z,997.99
2019-05-10T03:27:50.171Z,998.00
2019-05-10T03:28:50.079Z,998.00
2019-05-10T03:29:50.003Z,998.04
2019-05-10T03:30:49.944Z,998.04
2019-05-10T03:31:49.841Z,998.06
2019-05-10T03:32:49.776Z,998.06
2019-05-10T03:33:55.645Z,998.04
2019-05-10T03:34:49.686Z,998.06
2019-05-10T03:35:49.517Z,998.05
2019-05-10T03:36:49.429Z,998.05
2019-05-10T03:37:49.343Z,998.09
2019-05-10T03:38:49.270Z,998.10
2019-05-10T03:39:49.179Z,998.16
2019-05-10T03:40:49.104Z,998.12
2019-05-10T03:41:49.017Z,998.18
2019-05-10T03:42:48.944Z,998.21
2019-05-10T03:43:48.854Z,998.21
2019-05-10T03:44:48.785Z,998.22
2019-05-10T03:45:48.692Z,998.26
2019-05-10T03:46:48.617Z,998.27
2019-05-10T03:47:48.533Z,998.26
2019-05-10T03:48:48.459Z,998.27
2019-05-10T03:49:48.368Z,998.34
2019-05-10T03:50:48.293Z,998.30
2019-05-10T03:51:48.209Z,998.32
2019-05-10T03:52:51.949Z,998.32
2019-05-10T03:53:48.042Z,998.36
2019-05-10T03:54:47.967Z,998.36
2019-05-10T03:55:47.882Z,998.36
2019-05-10T03:56:47.806Z,998.38
2019-05-10T03:57:47.719Z,998.41
2019-05-10T03:58:47.636Z,998.43
2019-05-10T03:59:47.558Z,998.39
2019-05-10T04:00:47.469Z,998.40
2019-05-10T04:01:47.399Z,998.43
2019-05-10T04:02:47.351Z,998.47
2019-05-10T04:03:47.233Z,998.43
2019-05-10T04:04:47.159Z,998.48
2019-05-10T04:05:47.079Z,998.46
2019-05-10T04:06:46.981Z,998.50
2019-05-10T04:07:46.911Z,998.47
2019-05-10T04:08:46.819Z,998.47
2019-05-10T04:09:46.745Z,998.50
2019-05-10T04:10:46.745Z,998.51
2019-05-10T04:11:46.583Z,998.47
2019-05-10T04:12:46.555Z,998.53
2019-05-10T04:13:46.420Z,998.49
2019-05-10T04:14:46.355Z,998.52
2019-05-10T04:15:46.259Z,998.54
2019-05-10T04:16:46.170Z,998.54
2019-05-10T04:17:49.953Z,998.51
2019-05-10T04:18:46.013Z,998.57
2019-05-10T04:19:45.924Z,998.62
2019-05-10T04:20:45.860Z,998.58
2019-05-10T04:21:45.759Z,998.62
2019-05-10T04:22:45.686Z,998.63
2019-05-10T04:23:45.662Z,998.66
2019-05-10T04:24:45.522Z,998.68
2019-05-10T04:25:45.440Z,998.65
2019-05-10T04:26:45.360Z,998.64
2019-05-10T04:27:45.271Z,998.66
2019-05-10T04:28:45.196Z,998.66
2019-05-10T04:29:45.111Z,998.69
2019-05-10T04:30:45.035Z,998.69
2019-05-10T04:31:44.947Z,998.66
2019-05-10T04:32:44.883Z,998.71
2019-05-10T04:33:44.784Z,998.72
2019-05-10T04:34:44.710Z,998.73
2019-05-10T04:35:44.626Z,998.73
2019-05-10T04:36:44.550Z,998.73
2019-05-10T04:37:44.461Z,998.78
2019-05-10T04:38:44.387Z,998.77
2019-05-10T04:39:44.305Z,998.77
2019-05-10T04:40:44.223Z,998.79
2019-05-10T04:41:44.149Z,998.81
2019-05-10T04:42:44.062Z,998.82
2019-05-10T04:43:43.983Z,998.81
2019-05-10T04:44:43.898Z,998.82
2019-05-10T04:45:43.813Z,998.85
2019-05-10T04:46:43.735Z,998.85
2019-05-10T04:47:43.647Z,998.86
2019-05-10T04:48:43.572Z,998.89
2019-05-10T04:49:43.494Z,998.90
2019-05-10T04:50:43.417Z,998.91
2019-05-10T04:51:43.337Z,998.92
2019-05-10T04:52:43.249Z,998.94
2019-05-10T04:53:43.163Z,998.97
2019-05-10T04:54:43.090Z,998.95
2019-05-10T04:55:43.001Z,998.97
2019-05-10T04:56:42.926Z,998.96
2019-05-10T04:57:50.592Z,998.98
2019-05-10T04:58:42.763Z,999.01
2019-05-10T04:59:42.675Z,999.01
2019-05-10T05:00:42.600Z,999.01
2019-05-10T05:01:42.513Z,999.06
2019-05-10T05:02:42.443Z,999.09
2019-05-10T05:03:42.351Z,999.10
2019-05-10T05:04:42.275Z,999.11
2019-05-10T05:05:42.188Z,999.09
2019-05-10T05:06:42.113Z,999.12
2019-05-10T05:07:42.038Z,999.10
2019-05-10T05:08:41.950Z,999.12
2019-05-10T05:09:41.868Z,999.13
2019-05-10T05:10:41.789Z,999.14
2019-05-10T05:11:41.705Z,999.11
2019-05-10T05:12:41.627Z,999.12
2019-05-10T05:13:41.560Z,999.14
2019-05-10T05:14:41.471Z,999.17
2019-05-10T05:15:41.376Z,999.15
2019-05-10T05:16:41.300Z,999.18
2019-05-10T05:17:41.226Z,999.20
2019-05-10T05:18:41.139Z,999.25
2019-05-10T05:19:41.152Z,999.23
2019-05-10T05:20:40.976Z,999.29
2019-05-10T05:21:40.902Z,999.25
2019-05-10T05:22:40.826Z,999.28
2019-05-10T05:23:40.743Z,999.28
2019-05-10T05:24:40.651Z,999.31
2019-05-10T05:25:41.819Z,999.31
2019-05-10T05:26:40.489Z,999.27
2019-05-10T05:27:40.417Z,999.31
2019-05-10T05:28:40.327Z,999.33
2019-05-10T05:29:40.253Z,999.33
2019-05-10T05:30:40.167Z,999.36
2019-05-10T05:31:40.097Z,999.34
2019-05-10T05:32:44.386Z,999.40
2019-05-10T05:33:39.928Z,999.35
2019-05-10T05:34:39.853Z,999.40
2019-05-10T05:35:39.799Z,999.37
2019-05-10T05:36:39.691Z,999.37
2019-05-10T05:37:39.603Z,999.44
2019-05-10T05:38:40.310Z,999.44
2019-05-10T05:39:39.442Z,999.40
2019-05-10T05:40:39.371Z,999.43
2019-05-10T05:41:48.280Z,999.44
2019-05-10T05:42:39.206Z,999.41
2019-05-10T05:43:45.337Z,999.41
2019-05-10T05:44:39.042Z,999.42
2019-05-10T05:45:38.967Z,999.45
2019-05-10T05:46:38.885Z,999.41
2019-05-10T05:47:42.241Z,999.45
2019-05-10T05:48:40.441Z,999.45
2019-05-10T05:49:38.642Z,999.44
2019-05-10T05:50:38.568Z,999.45
2019-05-10T05:51:38.479Z,999.45
2019-05-10T05:52:38.405Z,999.43
2019-05-10T05:53:42.166Z,999.44
2019-05-10T05:54:38.251Z,999.47
2019-05-10T05:55:38.169Z,999.48
2019-05-10T05:56:38.080Z,999.45
2019-05-10T05:57:38.005Z,999.48
2019-05-10T05:58:43.667Z,999.45
2019-05-10T05:59:37.845Z,999.48
2019-05-10T06:00:44.389Z,999.50
2019-05-10T06:01:37.683Z,999.48
2019-05-10T06:02:43.930Z,999.53
2019-05-10T06:03:37.531Z,999.55
2019-05-10T06:04:40.955Z,999.52
2019-05-10T06:05:37.486Z,999.55
2019-05-10T06:06:37.284Z,999.56
2019-05-10T06:07:37.932Z,999.57
2019-05-10T06:08:37.135Z,999.62
2019-05-10T06:09:37.740Z,999.62
2019-05-10T06:10:36.970Z,999.63
2019-05-10T06:11:37.892Z,999.63
2019-05-10T06:12:36.821Z,999.66
2019-05-10T06:13:36.734Z,999.62
2019-05-10T06:14:36.660Z,999.62
2019-05-10T06:15:36.575Z,999.69
2019-05-10T06:16:36.483Z,999.70
2019-05-10T06:17:36.407Z,999.66
2019-05-10T06:18:36.332Z,999.66
2019-05-10T06:19:36.246Z,999.69
2019-05-10T06:20:38.320Z,999.67
2019-05-10T06:21:36.083Z,999.67
2019-05-10T06:22:38.222Z,999.71
2019-05-10T06:23:36.874Z,999.76
2019-05-10T06:24:35.846Z,999.79
2019-05-10T06:25:41.977Z,999.78
2019-05-10T06:26:35.683Z,999.75
2019-05-10T06:27:40.746Z,999.78
2019-05-10T06:28:57.607Z,999.84
2019-05-10T06:29:35.448Z,999.77
2019-05-10T06:30:35.372Z,999.76
2019-05-10T06:31:35.284Z,999.81
2019-05-10T06:32:35.209Z,999.79
2019-05-10T06:33:39.508Z,999.78
2019-05-10T06:34:38.744Z,999.81
2019-05-10T06:35:34.972Z,999.81
2019-05-10T06:36:34.903Z,999.82
2019-05-10T06:37:34.809Z,999.87
2019-05-10T06:38:34.747Z,999.83
2019-05-10T06:39:34.648Z,999.85
2019-05-10T06:40:39.556Z,999.84
2019-05-10T06:41:34.487Z,999.87
2019-05-10T06:42:36.038Z,999.84
2019-05-10T06:43:34.341Z,999.85
2019-05-10T06:44:34.249Z,999.85
2019-05-10T06:45:34.174Z,999.92
2019-05-10T06:46:34.100Z,999.85
2019-05-10T06:47:34.011Z,999.85
2019-05-10T06:48:33.943Z,999.87
2019-05-10T06:49:33.849Z,999.85
2019-05-10T06:50:33.774Z,999.85
2019-05-10T06:51:33.699Z,999.87
2019-05-10T06:52:33.612Z,999.94
2019-05-10T06:53:33.537Z,999.92
2019-05-10T06:54:33.449Z,999.90
2019-05-10T06:55:33.377Z,999.88
2019-05-10T06:56:33.300Z,999.93
2019-05-10T06:57:33.212Z,999.93
2019-05-10T06:58:36.522Z,999.93
2019-05-10T06:59:33.062Z,999.93
2019-05-10T07:00:38.028Z,999.94
2019-05-10T07:01:38.174Z,999.94
2019-05-10T07:02:32.812Z,999.97
2019-05-10T07:03:32.738Z,999.95
2019-05-10T07:04:37.753Z,999.98
2019-05-10T07:05:32.576Z,1000.03
2019-05-10T07:06:32.501Z,999.94
2019-05-10T07:07:43.359Z,1000.01
2019-05-10T07:08:43.807Z,1000.04
2019-05-10T07:09:59.996Z,1000.03
2019-05-10T07:10:33.723Z,1000.06
2019-05-10T07:11:32.103Z,1000.06
2019-05-10T07:12:32.070Z,1000.07
2019-05-10T07:13:31.941Z,1000.06
2019-05-10T07:14:31.863Z,1000.09
2019-05-10T07:15:35.931Z,1000.04
2019-05-10T07:16:31.701Z,1000.12
2019-05-10T07:17:39.174Z,1000.08
2019-05-10T07:18:31.539Z,1000.09
2019-05-10T07:19:34.979Z,1000.10
2019-05-10T07:20:31.389Z,1000.07
2019-05-10T07:21:31.304Z,1000.12
2019-05-10T07:22:31.235Z,1000.11
2019-05-10T07:23:31.142Z,1000.12
2019-05-10T07:24:31.065Z,1000.16
2019-05-10T07:25:30.990Z,1000.15
2019-05-10T07:26:30.914Z,1000.15
2019-05-10T07:27:36.407Z,1000.20
2019-05-10T07:28:30.755Z,1000.22
2019-05-10T07:29:36.279Z,1000.22
2019-05-10T07:30:30.602Z,1000.18
2019-05-10T07:31:30.517Z,1000.25
2019-05-10T07:32:30.430Z,1000.23
2019-05-10T07:33:32.137Z,1000.23
2019-05-10T07:34:30.268Z,1000.26
2019-05-10T07:35:31.066Z,1000.27
2019-05-10T07:36:30.987Z,1000.29
2019-05-10T07:37:30.030Z,1000.32
2019-05-10T07:38:30.674Z,1000.35
2019-05-10T07:39:29.879Z,1000.39
2019-05-10T07:40:29.810Z,1000.39
2019-05-10T07:41:29.728Z,1000.40
2019-05-10T07:42:29.643Z,1000.40
2019-05-10T07:43:29.566Z,1000.42
2019-05-10T07:44:29.480Z,1000.41
2019-05-10T07:45:29.404Z,1000.48
2019-05-10T07:46:29.318Z,1000.45
2019-05-10T07:47:30.592Z,1000.46
2019-05-10T07:48:29.167Z,1000.46
2019-05-10T07:49:30.369Z,1000.53
2019-05-10T07:50:29.010Z,1000.56
2019-05-10T07:51:30.204Z,1000.54
2019-05-10T07:52:28.856Z,1000.54
2019-05-10T07:53:28.775Z,1000.52
2019-05-10T07:54:28.692Z,1000.57
2019-05-10T07:55:30.035Z,1000.63
2019-05-10T07:56:28.545Z,1000.66
2019-05-10T07:57:28.468Z,1000.65
2019-05-10T07:58:28.389Z,1000.69
2019-05-10T07:59:33.808Z,1000.75
2019-05-10T08:00:28.234Z,1000.73
2019-05-10T08:01:32.538Z,1000.78
2019-05-10T08:02:28.084Z,1000.73
2019-05-10T08:03:29.795Z,1000.84
2019-05-10T08:04:33.187Z,1000.86
2019-05-10T08:05:29.604Z,1000.80
2019-05-10T08:06:33.897Z,1000.83
2019-05-10T08:07:29.424Z,1000.89
2019-05-10T08:08:29.589Z,1000.89
2019-05-10T08:09:31.464Z,1000.87
2019-05-10T08:10:28.939Z,1000.89
2019-05-10T08:11:28.587Z,1000.87
2019-05-10T08:12:28.830Z,1000.90
2019-05-10T08:13:28.403Z,1000.94
2019-05-10T08:14:29.012Z,1000.98
2019-05-10T08:15:32.634Z,1000.93
2019-05-10T08:16:28.906Z,1000.95
2019-05-10T08:17:28.701Z,1000.99
2019-05-10T08:18:29.163Z,1000.95
2019-05-10T08:19:26.788Z,1000.99
2019-05-10T08:20:41.442Z,1001.03
2019-05-10T08:21:26.706Z,1001.03
2019-05-10T08:22:26.559Z,1000.99
2019-05-10T08:23:27.972Z,1001.08
2019-05-10T08:24:26.409Z,1001.10
2019-05-10T08:25:29.043Z,1001.09
2019-05-10T08:26:26.249Z,1001.07
2019-05-10T08:27:26.173Z,1001.10
2019-05-10T08:28:28.096Z,1001.07
2019-05-10T08:29:26.021Z,1001.09
2019-05-10T08:30:29.109Z,1001.10
2019-05-10T08:31:26.356Z,1001.07
2019-05-10T08:32:29.918Z,1001.07
2019-05-10T08:33:25.722Z,1001.13
2019-05-10T08:34:29.070Z,1001.11
2019-05-10T08:35:25.572Z,1001.07
2019-05-10T08:36:25.488Z,1001.04
2019-05-10T08:37:33.159Z,1001.10
2019-05-10T08:38:25.336Z,1001.07
2019-05-10T08:39:25.260Z,1001.06
2019-05-10T08:40:33.618Z,1001.12
2019-05-10T08:41:25.112Z,1001.19
2019-05-10T08:42:37.719Z,1001.16
2019-05-10T08:43:24.973Z,1001.06
2019-05-10T08:44:24.885Z,1001.11
2019-05-10T08:45:24.811Z,1001.14
2019-05-10T08:46:33.020Z,1001.14
2019-05-10T08:47:27.679Z,1001.21
2019-05-10T08:48:27.391Z,1001.11
2019-05-10T08:49:31.176Z,1001.10
2019-05-10T08:50:43.491Z,1001.13
2019-05-10T08:51:24.349Z,1001.12
2019-05-10T08:52:30.560Z,1001.13
2019-05-10T08:53:24.199Z,1001.12
2019-05-10T08:54:26.489Z,1001.17
2019-05-10T08:55:24.065Z,1001.18
2019-05-10T08:56:24.356Z,1001.16
2019-05-10T08:57:23.888Z,1001.18
2019-05-10T08:58:31.444Z,1001.19
2019-05-10T08:59:26.571Z,1001.13
2019-05-10T09:00:41.068Z,1001.11
2019-05-10T09:01:29.481Z,1001.14
2019-05-10T09:02:29.040Z,1001.19
2019-05-10T09:03:23.444Z,1001.16
2019-05-10T09:04:23.351Z,1001.21
2019-05-10T09:05:29.139Z,1001.29
2019-05-10T09:06:23.210Z,1001.28
2019-05-10T09:07:23.363Z,1001.26
2019-05-10T09:08:25.007Z,1001.28
2019-05-10T09:09:22.976Z,1001.25
2019-05-10T09:10:22.889Z,1001.20
2019-05-10T09:11:23.211Z,1001.23
2019-05-10T09:12:23.114Z,1001.15
2019-05-10T09:13:22.869Z,1001.31
2019-05-10T09:14:24.074Z,1001.26
2019-05-10T09:15:22.515Z,1001.28
2019-05-10T09:16:23.713Z,1001.35
2019-05-10T09:17:26.854Z,1001.35
2019-05-10T09:18:22.947Z,1001.36
2019-05-10T09:19:27.754Z,1001.31
2019-05-10T09:20:26.327Z,1001.35
2019-05-10T09:21:22.435Z,1001.34
2019-05-10T09:22:23.399Z,1001.31
2019-05-10T09:23:22.785Z,1001.36
2019-05-10T09:24:22.837Z,1001.35
2019-05-10T09:25:29.278Z,1001.37
2019-05-10T09:26:22.695Z,1001.47
2019-05-10T09:27:22.449Z,1001.44
2019-05-10T09:28:21.873Z,1001.38
2019-05-10T09:29:21.906Z,1001.41
2019-05-10T09:30:22.000Z,1001.35
2019-05-10T09:31:25.259Z,1001.30
2019-05-10T09:32:28.683Z,1001.33
2019-05-10T09:33:22.429Z,1001.36
2019-05-10T09:34:23.763Z,1001.34
2019-05-10T09:35:22.163Z,1001.37
2019-05-10T09:36:25.160Z,1001.40
2019-05-10T09:37:22.463Z,1001.36
2019-05-10T09:38:22.118Z,1001.45
2019-05-10T09:39:24.252Z,1001.41
2019-05-10T09:40:21.988Z,1001.44
2019-05-10T09:41:22.445Z,1001.41
2019-05-10T09:42:26.552Z,1001.43
2019-05-10T09:43:23.576Z,1001.51
2019-05-10T09:44:20.257Z,1001.49
2019-05-10T09:45:22.234Z,1001.52
2019-05-10T09:46:22.756Z,1001.52
2019-05-10T09:47:22.086Z,1001.54
2019-05-10T09:48:22.646Z,1001.54
2019-05-10T09:49:19.856Z,1001.59
2019-05-10T09:50:19.780Z,1001.57
2019-05-10T09:51:28.021Z,1001.55
2019-05-10T09:52:19.633Z,1001.55
2019-05-10T09:53:23.655Z,1001.54
2019-05-10T09:54:23.302Z,1001.57
2019-05-10T09:55:19.394Z,1001.58
2019-05-10T09:56:19.307Z,1001.64
2019-05-10T09:57:19.240Z,1001.63
2019-05-10T09:58:22.232Z,1001.67
2019-05-10T09:59:19.095Z,1001.65
2019-05-10T10:00:18.995Z,1001.68
2019-05-10T10:01:21.624Z,1001.69
2019-05-10T10:02:19.040Z,1001.69
2019-05-10T10:03:18.757Z,1001.69
2019-05-10T10:04:20.458Z,1001.69
2019-05-10T10:05:18.608Z,1001.68
2019-05-10T10:06:18.522Z,1001.69
2019-05-10T10:07:18.982Z,1001.74
2019-05-10T10:08:18.370Z,1001.75
2019-05-10T10:09:18.286Z,1001.72
2019-05-10T10:10:28.504Z,1001.79
2019-05-10T10:11:18.701Z,1001.79
2019-05-10T10:12:18.063Z,1001.79
2019-05-10T10:13:36.017Z,1001.79
2019-05-10T10:14:18.042Z,1001.84
2019-05-10T10:15:25.263Z,1001.80
2019-05-10T10:16:19.179Z,1001.85
2019-05-10T10:17:20.406Z,1001.81
2019-05-10T10:18:21.277Z,1001.81
2019-05-10T10:19:20.359Z,1001.86
2019-05-10T10:20:17.421Z,1001.86
2019-05-10T10:21:18.868Z,1001.89
2019-05-10T10:22:17.387Z,1001.85
2019-05-10T10:23:17.411Z,1001.83
2019-05-10T10:24:20.033Z,1001.72
2019-05-10T10:25:17.677Z,1001.78
2019-05-10T10:26:18.595Z,1001.83
2019-05-10T10:27:17.181Z,1001.82
2019-05-10T10:28:18.716Z,1001.78
2019-05-10T10:29:17.293Z,1001.84
2019-05-10T10:30:21.097Z,1001.82
2019-05-10T10:31:28.691Z,1001.87
2019-05-10T10:32:16.485Z,1001.97
2019-05-10T10:33:24.435Z,1001.92
2019-05-10T10:34:17.368Z,1001.97
2019-05-10T10:35:20.996Z,1001.98
2019-05-10T10:36:16.181Z,1001.94
2019-05-10T10:37:22.224Z,1001.95
2019-05-10T10:38:17.890Z,1002.01
2019-05-10T10:39:17.055Z,1002.02
2019-05-10T10:40:18.257Z,1001.95
2019-05-10T10:41:19.152Z,1001.99
2019-05-10T10:42:17.610Z,1001.99
2019-05-10T10:43:17.817Z,1002.03
2019-05-10T10:44:18.020Z,1002.10
2019-05-10T10:45:17.347Z,1002.06
2019-05-10T10:46:17.590Z,1002.13
2019-05-10T10:47:15.325Z,1002.15
2019-05-10T10:48:15.236Z,1002.33
2019-05-10T10:49:17.620Z,1002.24
2019-05-10T10:50:17.083Z,1002.23
2019-05-10T10:51:15.012Z,1002.23
2019-05-10T10:52:17.101Z,1002.27
2019-05-10T10:53:14.863Z,1002.27
2019-05-10T10:54:17.436Z,1002.20
2019-05-10T10:55:14.701Z,1002.23
2019-05-10T10:56:14.626Z,1002.25
2019-05-10T10:57:14.553Z,1002.21
2019-05-10T10:58:14.475Z,1002.25
2019-05-10T10:59:14.401Z,1002.19
2019-05-10T11:00:17.580Z,1002.19
2019-05-10T11:01:21.661Z,1002.21
2019-05-10T11:02:32.082Z,1002.20
2019-05-10T11:03:14.088Z,1002.24
2019-05-10T11:04:16.309Z,1002.23
2019-05-10T11:05:13.951Z,1002.26
2019-05-10T11:06:15.473Z,1002.25
2019-05-10T11:07:13.789Z,1002.26
2019-05-10T11:08:13.714Z,1002.18
2019-05-10T11:09:13.655Z,1002.29
2019-05-10T11:10:18.586Z,1002.27
2019-05-10T11:11:13.481Z,1002.30
2019-05-10T11:12:14.794Z,1002.28
2019-05-10T11:13:20.353Z,1002.31
2019-05-10T11:14:13.252Z,1002.27
2019-05-10T11:15:16.458Z,1002.30
2019-05-10T11:16:15.778Z,1002.36
2019-05-10T11:17:13.017Z,1002.31
2019-05-10T11:18:12.940Z,1002.30
2019-05-10T11:19:15.604Z,1002.35
2019-05-10T11:20:12.790Z,1002.29
2019-05-10T11:21:12.716Z,1002.30
2019-05-10T11:22:12.644Z,1002.31
2019-05-10T11:23:15.719Z,1002.31
2019-05-10T11:24:18.110Z,1002.31
2019-05-10T11:25:13.040Z,1002.34
2019-05-10T11:26:12.329Z,1002.37
2019-05-10T11:27:15.844Z,1002.36
2019-05-10T11:28:12.202Z,1002.41
2019-05-10T11:29:14.221Z,1002.38
2019-05-10T11:30:12.295Z,1002.34
2019-05-10T11:31:11.943Z,1002.39
2019-05-10T11:32:16.314Z,1002.37
2019-05-10T11:33:25.891Z,1002.40
2019-05-10T11:34:11.705Z,1002.35
2019-05-10T11:35:11.837Z,1002.41
2019-05-10T11:36:11.646Z,1002.45
2019-05-10T11:37:11.480Z,1002.43
2019-05-10T11:38:12.732Z,1002.48
2019-05-10T11:39:25.286Z,1002.50
2019-05-10T11:40:11.397Z,1002.49
2019-05-10T11:41:13.575Z,1002.53
2019-05-10T11:42:11.470Z,1002.48
2019-05-10T11:43:11.030Z,1002.49
2019-05-10T11:44:12.073Z,1002.58
2019-05-10T11:45:11.179Z,1002.43
2019-05-10T11:46:11.756Z,1002.40
2019-05-10T11:47:23.416Z,1002.40
2019-05-10T11:48:10.921Z,1002.51
2019-05-10T11:49:10.732Z,1002.38
2019-05-10T11:50:10.743Z,1002.47
2019-05-10T11:51:15.387Z,1002.49
2019-05-10T11:52:13.099Z,1002.45
2019-05-10T11:53:13.391Z,1002.39
2019-05-10T11:54:11.165Z,1002.43
2019-05-10T11:55:11.364Z,1002.41
2019-05-10T11:56:14.131Z,1002.46
2019-05-10T11:57:13.487Z,1002.46
2019-05-10T11:59:15.904Z,1002.49
2019-05-10T12:00:14.646Z,1002.59
2019-05-10T12:01:17.625Z,1002.60
2019-05-10T12:02:10.545Z,1002.61
2019-05-10T12:03:15.436Z,1002.57
2019-05-10T12:04:15.333Z,1002.40
2019-05-10T12:06:12.031Z,1002.35
2019-05-10T12:07:12.692Z,1002.34
2019-05-10T12:08:12.676Z,1002.44
2019-05-10T12:09:12.345Z,1002.42
2019-05-10T12:10:17.917Z,1002.47
2019-05-10T12:11:25.492Z,1002.53
2019-05-10T12:12:11.974Z,1002.51
2019-05-10T12:13:15.817Z,1002.49
2019-05-10T12:14:13.546Z,1002.51
2019-05-10T12:15:08.609Z,1002.69
2019-05-10T12:16:11.789Z,1002.63
2019-05-10T12:17:13.835Z,1002.62
2019-05-10T12:18:08.386Z,1002.64
2019-05-10T12:19:16.928Z,1002.58